Time;durP1;ratioP1;P1;durP2;ratioP2;P2;SDS_P1;SDS_P2;PMS_P1;PMS_P2;Temp;Humidity;BMP_temperature;BMP_pressure;BME280_temperature;BME280_humidity;BME280_pressure;Samples;Min_cycle;Max_cycle;Signal;HPM_P1;HPM_P2
2022/10/27 00:01:49;;;;;;;29.12;13.60;;;;;;;14.50;59.97;100671.50;4485307;32;27480;-89
2022/10/27 00:04:15;;;;;;;24.05;12.93;;;;;;;14.48;59.97;100668.06;4471784;32;32425;-90
2022/10/27 00:06:40;;;;;;;23.90;13.07;;;;;;;14.57;59.98;100673.84;4485930;32;20124;-90
2022/10/27 00:09:06;;;;;;;26.85;14.35;;;;;;;14.46;59.96;100672.50;4485942;32;20108;-90
2022/10/27 00:11:31;;;;;;;24.10;13.90;;;;;;;14.35;59.97;100673.66;4486793;31;20120;-90
2022/10/27 00:13:56;;;;;;;22.00;12.50;;;;;;;14.36;59.97;100669.28;4485397;32;20127;-90
2022/10/27 00:16:23;;;;;;;23.23;12.82;;;;;;;14.29;59.96;100673.00;4485260;32;30376;-90
2022/10/27 00:18:48;;;;;;;23.02;13.38;;;;;;;14.20;59.95;100681.19;4472875;32;20107;-89
2022/10/27 00:21:15;;;;;;;22.60;12.50;;;;;;;14.23;59.96;100684.56;4472228;32;22701;-90
2022/10/27 00:23:40;;;;;;;23.12;12.57;;;;;;;14.29;59.96;100683.50;4472720;32;20133;-89
2022/10/27 00:26:07;;;;;;;27.58;13.15;;;;;;;14.40;59.96;100676.97;4459251;32;25942;-89
2022/10/27 00:28:32;;;;;;;28.20;13.57;;;;;;;14.25;59.96;100680.13;4468296;32;20092;-89
2022/10/27 00:31:05;;;;;;;27.02;13.35;;;;;;;14.17;59.95;100684.72;4465458;32;20751;-89
2022/10/27 00:33:32;;;;;;;25.20;13.15;;;;;;;14.30;59.96;100672.97;4460408;32;20160;-89
2022/10/27 00:36:14;;;;;;;22.25;13.50;;;;;;;14.12;59.95;100681.41;4459770;32;20103;-90
2022/10/27 00:38:40;;;;;;;26.75;14.40;;;;;;;14.24;59.95;100675.78;4472631;32;20088;-90
2022/10/27 00:41:07;;;;;;;24.08;13.65;;;;;;;14.22;59.96;100681.97;4484899;32;30358;-90
2022/10/27 00:43:34;;;;;;;25.25;13.65;;;;;;;14.35;59.97;100688.53;4485385;32;20167;-90
2022/10/27 00:46:22;;;;;;;27.25;14.65;;;;;;;14.30;59.95;100686.06;4459484;32;20417;-90
2022/10/27 00:48:47;;;;;;;22.87;13.20;;;;;;;14.37;59.96;100692.81;4485583;32;20486;-90
2022/10/27 00:51:13;;;;;;;26.45;13.95;;;;;;;14.27;59.96;100691.41;4472553;32;20100;-89
2022/10/27 00:53:39;;;;;;;24.40;13.77;;;;;;;14.46;59.97;100698.69;4485488;32;20128;-90
2022/10/27 00:56:06;;;;;;;26.75;14.27;;;;;;;14.34;59.97;100702.53;4472153;32;23716;-90
2022/10/27 00:58:31;;;;;;;24.05;12.70;;;;;;;14.43;59.97;100700.50;4459545;32;20118;-90
2022/10/27 01:00:56;;;;;;;27.17;13.48;;;;;;;14.37;59.96;100700.66;4485172;32;22052;-91
2022/10/27 01:03:22;;;;;;;22.65;13.20;;;;;;;14.43;59.97;100702.25;4485265;32;20556;-91
2022/10/27 01:05:48;;;;;;;27.83;14.48;;;;;;;14.61;59.98;100698.16;4485537;32;20144;-90
2022/10/27 01:08:13;;;;;;;23.40;14.02;;;;;;;14.32;59.95;100709.56;4485505;32;20119;-91
2022/10/27 01:10:39;;;;;;;24.77;13.80;;;;;;;14.55;59.97;100707.09;4485578;32;20144;-90
2022/10/27 01:13:07;;;;;;;30.30;15.15;;;;;;;14.59;59.98;100705.22;4459269;32;20112;-92
2022/10/27 01:15:45;;;;;;;28.23;15.32;;;;;;;14.49;59.97;100715.16;4459747;32;20092;-90
2022/10/27 01:18:35;;;;;;;36.08;16.92;;;;;;;14.35;59.97;100702.47;4485539;32;20104;-91
2022/10/27 01:21:21;;;;;;;32.88;16.37;;;;;;;14.45;59.97;100713.56;4486566;31;20177;-90
2022/10/27 01:24:09;;;;;;;37.67;17.62;;;;;;;14.54;59.97;100708.00;4484804;32;20112;-91
2022/10/27 01:26:51;;;;;;;35.75;17.50;;;;;;;14.58;59.98;100721.84;4471329;31;20080;-91
2022/10/27 01:29:36;;;;;;;37.05;17.83;;;;;;;14.29;59.96;100720.16;4460159;32;20080;-90
2022/10/27 01:32:27;;;;;;;35.90;18.08;;;;;;;14.51;59.97;100717.72;4459672;32;20481;-90
2022/10/27 01:35:03;;;;;;;34.97;18.27;;;;;;;14.56;59.98;100718.44;4485392;32;20099;-90
2022/10/27 01:37:52;;;;;;;38.40;19.40;;;;;;;14.43;59.97;100724.09;4472090;32;20118;-90
2022/10/27 01:40:31;;;;;;;38.70;19.83;;;;;;;14.46;59.97;100722.28;4472092;32;20412;-91
2022/10/27 01:43:08;;;;;;;41.00;19.17;;;;;;;14.58;59.98;100708.75;4460321;32;20172;-91
2022/10/27 01:45:35;;;;;;;38.28;17.92;;;;;;;14.47;59.96;100713.50;4471990;32;20130;-91
2022/10/27 01:48:00;;;;;;;37.75;17.30;;;;;;;14.47;59.96;100714.38;4472342;32;20130;-90
2022/10/27 01:50:28;;;;;;;40.38;18.73;;;;;;;14.37;59.96;100710.28;4459127;32;20149;-91
2022/10/27 01:52:54;;;;;;;35.38;18.30;;;;;;;14.38;59.96;100718.09;4485734;32;20169;-91
2022/10/27 01:55:23;;;;;;;37.70;18.65;;;;;;;14.44;59.97;100722.31;4470637;32;20119;-91
2022/10/27 01:58:09;;;;;;;39.67;19.55;;;;;;;14.66;59.98;100714.59;4486144;32;20088;-91
2022/10/27 02:00:51;;;;;;;40.53;18.75;;;;;;;14.56;59.98;100715.81;4485093;32;20096;-90
2022/10/27 02:03:17;;;;;;;29.63;16.92;;;;;;;14.53;59.97;100718.53;4486274;31;20104;-90
2022/10/27 02:05:50;;;;;;;35.60;18.35;;;;;;;14.40;59.96;100731.97;4472001;32;20460;-91
2022/10/27 02:08:41;;;;;;;36.72;17.55;;;;;;;14.32;59.96;100723.53;4472823;32;20116;-91
2022/10/27 02:11:07;;;;;;;35.22;17.45;;;;;;;14.46;59.96;100727.50;4484829;32;20096;-91
2022/10/27 02:13:41;;;;;;;35.53;17.20;;;;;;;14.57;59.98;100725.37;4472178;32;20104;-91
2022/10/27 02:16:12;;;;;;;34.88;17.65;;;;;;;14.51;59.97;100718.59;4459018;32;20104;-91
2022/10/27 02:18:42;;;;;;;29.87;15.90;;;;;;;14.46;59.97;100730.12;4472508;32;20417;-91
2022/10/27 02:21:09;;;;;;;35.38;16.35;;;;;;;14.66;59.98;100717.22;4458955;32;20100;-91
2022/10/27 02:23:34;;;;;;;26.65;14.18;;;;;;;14.48;59.97;100723.09;4458075;32;27816;-91
2022/10/27 02:26:41;;;;;;;30.40;16.02;;;;;;;14.28;59.96;100728.91;4471895;32;20481;-91
2022/10/27 02:29:19;;;;;;;27.37;14.80;;;;;;;14.31;59.95;100724.44;4484990;32;20096;-91
2022/10/27 02:31:47;;;;;;;29.58;15.68;;;;;;;14.16;59.95;100719.66;4459071;32;20672;-91
2022/10/27 02:34:13;;;;;;;29.50;16.33;;;;;;;14.17;59.95;100725.75;4484843;32;20173;-91
2022/10/27 02:36:38;;;;;;;35.22;18.02;;;;;;;14.12;59.95;100729.38;4458551;32;20121;-90
2022/10/27 02:39:04;;;;;;;36.55;18.08;;;;;;;14.21;59.96;100727.41;4458355;32;20151;-91
2022/10/27 02:41:29;;;;;;;33.72;17.55;;;;;;;14.57;59.97;100726.25;4458396;32;20191;-90
2022/10/27 02:43:54;;;;;;;36.30;17.80;;;;;;;14.39;59.96;100722.41;4484381;32;20202;-90
2022/10/27 02:46:20;;;;;;;40.80;17.27;;;;;;;14.48;59.97;100730.94;4471331;32;20746;-90
2022/10/27 02:48:45;;;;;;;35.00;17.17;;;;;;;14.27;59.96;100728.06;4458588;32;20121;-90
2022/10/27 02:51:11;;;;;;;39.05;18.35;;;;;;;14.18;59.96;100735.31;4484352;32;20128;-90
2022/10/27 02:53:36;;;;;;;37.88;18.75;;;;;;;14.05;59.95;100737.47;4470625;32;23965;-90
2022/10/27 02:56:02;;;;;;;38.58;18.48;;;;;;;14.10;59.96;100738.19;4457960;32;24334;-91
2022/10/27 02:58:27;;;;;;;41.63;19.65;;;;;;;14.24;59.95;100738.63;4471339;32;20096;-90
2022/10/27 03:00:54;;;;;;;44.85;20.20;;;;;;;14.20;59.96;100731.78;4458026;32;20437;-91
2022/10/27 03:03:19;;;;;;;44.58;20.67;;;;;;;14.19;59.95;100730.03;4471181;32;20502;-90
2022/10/27 03:05:45;;;;;;;45.78;20.83;;;;;;;14.45;59.97;100725.81;4471520;32;20182;-89
2022/10/27 03:08:10;;;;;;;44.70;21.23;;;;;;;14.23;59.96;100726.44;4485535;32;31661;-89
2022/10/27 03:10:36;;;;;;;43.25;20.62;;;;;;;14.30;59.96;100732.34;4486106;32;20120;-89
2022/10/27 03:13:01;;;;;;;56.63;22.73;;;;;;;14.27;59.96;100730.69;4473106;32;20155;-89
2022/10/27 03:15:26;;;;;;;46.92;21.17;;;;;;;14.37;59.96;100733.84;4485457;32;21911;-90
2022/10/27 03:17:52;;;;;;;43.25;21.37;;;;;;;14.49;59.97;100736.13;4459295;32;30081;-89
2022/10/27 03:20:17;;;;;;;41.42;20.40;;;;;;;14.39;59.96;100739.91;4499022;32;20101;-90
2022/10/27 03:22:43;;;;;;;43.08;20.70;;;;;;;14.35;59.96;100746.13;4474174;32;20429;-89
2022/10/27 03:25:10;;;;;;;46.33;20.92;;;;;;;14.30;59.95;100743.66;4472513;32;22086;-89
2022/10/27 03:27:38;;;;;;;49.63;21.10;;;;;;;14.47;59.97;100745.81;4473321;32;20116;-89
2022/10/27 03:30:04;;;;;;;46.78;22.20;;;;;;;14.33;59.96;100745.34;4473292;32;20088;-89
2022/10/27 03:32:29;;;;;;;52.62;22.23;;;;;;;14.30;59.96;100750.69;4486118;32;20097;-88
2022/10/27 03:34:55;;;;;;;56.10;23.90;;;;;;;14.48;59.98;100742.28;4472705;32;20140;-89
2022/10/27 03:37:20;;;;;;;55.72;23.52;;;;;;;14.50;59.97;100747.47;4472383;32;23138;-89
2022/10/27 03:39:45;;;;;;;57.58;22.67;;;;;;;14.53;59.97;100755.22;4485324;32;32648;-89
2022/10/27 03:42:11;;;;;;;49.00;23.52;;;;;;;14.36;59.96;100746.09;4485654;32;20425;-89
2022/10/27 03:44:36;;;;;;;51.50;23.02;;;;;;;14.39;59.96;100750.38;4471932;32;31431;-90
2022/10/27 03:47:01;;;;;;;48.15;22.33;;;;;;;14.55;59.97;100758.66;4486062;32;20394;-90
2022/10/27 03:49:27;;;;;;;43.28;21.45;;;;;;;14.69;59.98;100751.19;4472426;32;21777;-90
2022/10/27 03:51:52;;;;;;;47.65;20.65;;;;;;;14.46;59.97;100751.09;4485563;32;22634;-90
2022/10/27 03:54:18;;;;;;;47.85;20.75;;;;;;;14.55;59.97;100751.63;4485622;32;20164;-90
2022/10/27 03:56:43;;;;;;;40.97;19.27;;;;;;;14.56;59.98;100755.13;4472582;32;20116;-92
2022/10/27 03:59:08;;;;;;;42.05;19.90;;;;;;;14.78;59.98;100757.91;4472617;32;20132;-92
2022/10/27 04:01:34;;;;;;;41.05;19.12;;;;;;;14.56;59.98;100747.25;4459792;32;20147;-91
2022/10/27 04:03:59;;;;;;;39.35;18.55;;;;;;;14.62;59.97;100755.75;4472885;32;20152;-90
2022/10/27 04:06:25;;;;;;;44.72;18.75;;;;;;;14.56;59.98;100761.22;4459662;32;20441;-89
2022/10/27 04:08:50;;;;;;;37.15;17.75;;;;;;;14.65;59.98;100760.03;4459190;32;25770;-90
2022/10/27 04:11:15;;;;;;;36.70;18.27;;;;;;;14.70;59.98;100756.41;4459090;32;21272;-90
2022/10/27 04:13:41;;;;;;;39.60;18.10;;;;;;;14.73;59.99;100763.28;4459772;32;20132;-91
2022/10/27 04:16:06;;;;;;;40.30;18.90;;;;;;;14.89;59.99;100761.00;4485360;32;20444;-90
2022/10/27 04:18:32;;;;;;;40.92;18.00;;;;;;;14.69;59.98;100765.16;4485531;32;20459;-90
2022/10/27 04:21:01;;;;;;;38.42;16.60;;;;;;;14.58;59.98;100763.78;4486692;31;20114;-89
2022/10/27 04:23:27;;;;;;;39.47;17.77;;;;;;;14.58;59.98;100764.62;4485610;32;20130;-90
2022/10/27 04:25:52;;;;;;;36.83;17.87;;;;;;;14.61;59.97;100769.78;4472442;32;20172;-90
2022/10/27 04:28:18;;;;;;;38.70;17.58;;;;;;;14.59;59.98;100776.81;4459219;32;20107;-90
2022/10/27 04:30:44;;;;;;;35.35;17.23;;;;;;;14.62;59.97;100773.25;4472811;32;20125;-92
2022/10/27 04:33:09;;;;;;;36.85;17.77;;;;;;;14.61;59.98;100771.53;4472008;32;24109;-90
2022/10/27 04:35:34;;;;;;;35.78;17.20;;;;;;;14.63;59.97;100778.44;4485117;32;27070;-90
2022/10/27 04:38:00;;;;;;;38.55;17.77;;;;;;;14.67;59.98;100773.97;4471835;32;28900;-91
2022/10/27 04:40:25;;;;;;;35.30;17.10;;;;;;;14.68;59.98;100779.19;4485682;32;20188;-90
2022/10/27 04:42:51;;;;;;;35.70;16.75;;;;;;;14.71;59.98;100775.59;4472664;32;20160;-90
2022/10/27 04:45:16;;;;;;;38.38;16.87;;;;;;;14.66;59.98;100778.34;4498959;31;20153;-91
2022/10/27 04:47:42;;;;;;;44.50;18.55;;;;;;;14.65;59.99;100789.72;4448251;32;20100;-90
2022/10/27 04:50:07;;;;;;;37.67;17.42;;;;;;;14.65;59.98;100794.97;4472370;32;20112;-89
2022/10/27 04:52:33;;;;;;;38.67;18.15;;;;;;;14.70;59.98;100789.59;4459256;32;20462;-90
2022/10/27 04:54:58;;;;;;;38.55;17.70;;;;;;;14.68;59.98;100791.41;4485197;32;20130;-91
2022/10/27 04:57:24;;;;;;;36.17;17.05;;;;;;;14.74;59.99;100791.22;4472264;32;20118;-91
2022/10/27 04:59:49;;;;;;;34.10;16.77;;;;;;;14.78;59.98;100795.44;4459421;32;20135;-90
2022/10/27 05:02:14;;;;;;;32.08;16.50;;;;;;;14.72;59.99;100795.66;4472530;32;20411;-90
2022/10/27 05:04:40;;;;;;;36.00;17.15;;;;;;;14.58;59.98;100803.09;4459208;32;20144;-91
2022/10/27 05:07:05;;;;;;;33.90;16.52;;;;;;;14.63;59.97;100806.41;4472056;32;21480;-91
2022/10/27 05:09:30;;;;;;;38.70;17.60;;;;;;;14.66;59.98;100806.31;4460178;32;20104;-91
2022/10/27 05:11:56;;;;;;;43.38;18.25;;;;;;;14.70;59.98;100802.72;4460935;32;29152;-91
2022/10/27 05:14:21;;;;;;;41.20;17.37;;;;;;;14.73;59.99;100805.22;4485385;32;20493;-90
2022/10/27 05:16:47;;;;;;;35.50;16.42;;;;;;;14.71;59.98;100807.03;4472327;32;20157;-90
2022/10/27 05:19:12;;;;;;;35.65;17.23;;;;;;;14.76;59.98;100802.50;4471795;32;20461;-91
2022/10/27 05:21:37;;;;;;;38.55;17.65;;;;;;;14.83;59.99;100805.78;4485202;32;20136;-91
2022/10/27 05:24:03;;;;;;;36.58;17.25;;;;;;;14.72;59.99;100811.38;4485099;32;20144;-90
2022/10/27 05:26:29;;;;;;;34.03;16.85;;;;;;;14.72;59.99;100808.75;4472284;32;20130;-91
2022/10/27 05:28:54;;;;;;;36.42;18.50;;;;;;;14.77;59.98;100817.31;4471088;32;20488;-90
2022/10/27 05:31:19;;;;;;;39.67;17.35;;;;;;;14.88;59.99;100819.56;4459177;32;20347;-91
2022/10/27 05:33:45;;;;;;;34.65;16.12;;;;;;;14.84;59.99;100820.59;4484904;32;20771;-90
2022/10/27 05:36:10;;;;;;;40.40;18.50;;;;;;;14.98;59.99;100819.25;4485230;32;20120;-92
2022/10/27 05:38:37;;;;;;;38.35;16.50;;;;;;;14.95;60.00;100823.72;4472122;32;20138;-92
2022/10/27 05:41:02;;;;;;;29.35;15.93;;;;;;;15.20;60.00;100816.75;4472341;32;20176;-93
2022/10/27 05:43:28;;;;;;;35.10;17.67;;;;;;;15.28;60.01;100821.72;4459036;32;20396;-92
2022/10/27 05:45:53;;;;;;;35.55;17.30;;;;;;;15.12;60.01;100825.78;4471973;32;20105;-91
2022/10/27 05:48:18;;;;;;;33.47;16.67;;;;;;;15.28;60.01;100825.22;4471985;32;20139;-91
2022/10/27 05:50:45;;;;;;;35.30;17.25;;;;;;;15.44;60.02;100827.31;4458700;32;20431;-90
2022/10/27 05:53:10;;;;;;;36.22;16.95;;;;;;;15.37;60.02;100837.16;4458913;32;20131;-91
2022/10/27 05:55:36;;;;;;;34.17;17.05;;;;;;;15.32;60.01;100836.47;4471366;32;20743;-91
2022/10/27 05:58:03;;;;;;;37.28;18.45;;;;;;;15.23;60.01;100842.03;4458743;32;20096;-91
2022/10/27 06:00:32;;;;;;;36.08;18.45;;;;;;;15.30;60.01;100836.50;4484970;32;20126;-91
2022/10/27 06:02:58;;;;;;;33.13;17.17;;;;;;;15.36;60.02;100838.06;4472100;32;20064;-90
2022/10/27 06:05:25;;;;;;;33.53;17.33;;;;;;;15.54;60.02;100836.56;4459421;32;20104;-91
2022/10/27 06:07:50;;;;;;;34.90;17.48;;;;;;;15.55;60.02;100847.00;4485479;32;20126;-91
2022/10/27 06:10:16;;;;;;;32.63;16.17;;;;;;;15.26;60.01;100848.03;4471904;31;20176;-91
2022/10/27 06:12:41;;;;;;;33.22;17.67;;;;;;;15.23;60.01;100849.91;4460178;32;20409;-91
2022/10/27 06:15:07;;;;;;;30.20;16.65;;;;;;;15.18;60.01;100854.44;4485405;31;22601;-91
2022/10/27 06:17:32;;;;;;;34.85;16.30;;;;;;;15.18;60.01;100867.56;4458732;32;20108;-91
2022/10/27 06:19:58;;;;;;;33.88;16.83;;;;;;;15.15;60.00;100870.28;4471582;32;20390;-91
2022/10/27 06:22:23;;;;;;;32.42;16.10;;;;;;;15.24;60.01;100865.56;4471158;32;25751;-90
2022/10/27 06:24:48;;;;;;;40.20;17.30;;;;;;;15.25;60.02;100861.19;4457981;32;20414;-91
2022/10/27 06:27:14;;;;;;;35.70;17.27;;;;;;;15.11;60.01;100866.03;4484103;32;21443;-91
2022/10/27 06:29:39;;;;;;;37.38;17.73;;;;;;;15.07;60.00;100872.28;4484463;32;20433;-91
2022/10/27 06:32:05;;;;;;;34.30;18.33;;;;;;;15.51;60.02;100869.03;4484134;32;28710;-90
2022/10/27 06:34:30;;;;;;;33.78;17.90;;;;;;;15.72;60.04;100869.22;4470857;32;21795;-91
2022/10/27 06:36:55;;;;;;;39.25;18.62;;;;;;;15.79;60.04;100868.94;4484254;32;21370;-91
2022/10/27 06:39:21;;;;;;;34.78;17.58;;;;;;;15.89;60.05;100866.88;4484294;32;20201;-91
2022/10/27 06:41:46;;;;;;;40.90;18.48;;;;;;;15.96;60.05;100874.47;4458432;32;20125;-91
2022/10/27 06:44:11;;;;;;;37.72;17.27;;;;;;;16.03;60.05;100876.84;4470849;32;20127;-92
2022/10/27 06:46:38;;;;;;;33.85;16.12;;;;;;;15.89;60.05;100882.62;4484277;32;20410;-92
2022/10/27 06:49:04;;;;;;;36.88;17.65;;;;;;;15.95;60.05;100883.25;4471604;32;20124;-92
2022/10/27 06:51:30;;;;;;;34.47;16.48;;;;;;;15.68;60.03;100888.63;4471223;32;20096;-91
2022/10/27 06:53:55;;;;;;;35.38;16.00;;;;;;;15.62;60.03;100884.44;4484418;32;20434;-90
2022/10/27 06:56:21;;;;;;;31.73;16.30;;;;;;;15.78;60.05;100896.12;4483929;32;20154;-91
2022/10/27 06:58:46;;;;;;;28.35;15.73;;;;;;;15.81;60.04;100893.38;4485557;31;20097;-91
2022/10/27 07:01:12;;;;;;;32.33;16.67;;;;;;;15.89;60.05;100891.34;4471139;32;20418;-90
2022/10/27 07:03:37;;;;;;;28.38;15.50;;;;;;;16.00;60.05;100890.97;4457980;32;20122;-91
2022/10/27 07:06:03;;;;;;;31.10;15.48;;;;;;;16.14;60.06;100891.31;4470359;32;26590;-92
2022/10/27 07:08:28;;;;;;;29.58;14.82;;;;;;;16.15;60.05;100898.28;4471209;32;20152;-91
2022/10/27 07:10:54;;;;;;;28.05;15.13;;;;;;;16.34;60.07;100893.22;4472054;32;20108;-91
2022/10/27 07:13:19;;;;;;;28.12;14.18;;;;;;;16.48;60.08;100901.41;4472557;32;20096;-92
2022/10/27 07:15:44;;;;;;;26.65;14.07;;;;;;;16.42;60.07;100903.44;4470986;32;20156;-91
2022/10/27 07:18:10;;;;;;;28.15;15.75;;;;;;;16.51;60.08;100898.66;4470859;32;20132;-91
2022/10/27 07:20:38;;;;;;;29.37;15.90;;;;;;;16.68;60.08;100902.47;4457802;32;20152;-92
2022/10/27 07:23:03;;;;;;;23.85;14.23;;;;;;;16.66;60.09;100914.78;4458323;32;20108;-91
2022/10/27 07:25:29;;;;;;;23.02;12.77;;;;;;;16.72;60.09;100911.94;4457500;32;20134;-91
2022/10/27 07:27:54;;;;;;;29.23;15.00;;;;;;;16.90;60.09;100913.00;4457760;32;20131;-92
2022/10/27 07:30:21;;;;;;;27.42;14.68;;;;;;;16.67;60.08;100911.25;4483995;32;20085;-91
2022/10/27 07:32:46;;;;;;;24.92;15.48;;;;;;;16.58;60.08;100915.09;4485244;32;20433;-91
2022/10/27 07:35:12;;;;;;;25.75;13.95;;;;;;;16.91;60.10;100914.72;4483017;32;20108;-91
2022/10/27 07:37:42;;;;;;;25.00;13.95;;;;;;;16.72;60.09;100922.47;4458585;32;20160;-92
2022/10/27 07:40:07;;;;;;;;;;;;;;;16.71;60.10;100926.84;4458208;32;20808;-91
2022/10/27 07:42:49;;;;;;;23.62;13.02;;;;;;;16.91;60.10;100931.34;4483721;32;19971;-91
2022/10/27 07:45:15;;;;;;;26.20;14.20;;;;;;;16.87;60.10;100941.13;4441697;32;20113;-91
2022/10/27 07:47:45;;;;;;;25.35;13.62;;;;;;;17.13;60.11;100942.72;4444853;32;20092;-92
2022/10/27 07:50:10;;;;;;;24.17;13.32;;;;;;;17.08;60.10;100947.31;4444659;32;20153;-91
2022/10/27 07:52:40;;;;;;;22.98;13.40;;;;;;;17.08;60.10;100944.69;4445781;32;20177;-92
2022/10/27 07:55:06;;;;;;;26.05;14.75;;;;;;;17.03;60.10;100946.63;4457348;32;20094;-91
2022/10/27 07:57:32;;;;;;;24.87;13.25;;;;;;;17.25;60.12;100953.66;4471835;32;20092;-92
2022/10/27 07:59:57;;;;;;;25.67;13.95;;;;;;;17.35;60.12;100952.41;4471559;32;25463;-92
2022/10/27 08:02:22;;;;;;;24.52;13.20;;;;;;;17.46;60.12;100948.38;4485471;32;20088;-92
2022/10/27 08:04:48;;;;;;;22.62;13.55;;;;;;;17.58;60.13;100956.72;4485114;32;27682;-90
2022/10/27 08:07:13;;;;;;;27.00;14.50;;;;;;;17.62;60.13;100958.28;4472506;32;20116;-91
2022/10/27 08:09:39;;;;;;;30.30;15.95;;;;;;;17.68;60.14;100963.31;4459793;32;20131;-92
2022/10/27 08:12:04;;;;;;;32.55;17.25;;;;;;;17.59;60.13;100966.31;4472920;32;20128;-91
2022/10/27 08:14:29;;;;;;;30.60;15.82;;;;;;;17.77;60.14;100968.22;4459529;32;20119;-92
2022/10/27 08:16:56;;;;;;;30.45;17.20;;;;;;;17.57;60.14;100965.53;4485801;32;20092;-92
2022/10/27 08:19:21;;;;;;;33.53;15.40;;;;;;;17.46;60.12;100977.34;4461754;32;20088;-92
2022/10/27 08:21:47;;;;;;;33.35;17.50;;;;;;;17.49;60.13;100985.09;4487180;32;20115;-92
2022/10/27 08:24:12;;;;;;;30.12;17.23;;;;;;;17.68;60.14;100979.13;4474108;32;20136;-92
2022/10/27 08:26:38;;;;;;;32.72;17.50;;;;;;;17.87;60.15;100981.84;4487173;32;20144;-91
2022/10/27 08:29:03;;;;;;;33.22;15.90;;;;;;;17.70;60.13;100977.28;4472515;32;20084;-92
2022/10/27 08:31:29;;;;;;;34.13;16.80;;;;;;;17.76;60.14;100984.94;4484935;32;20081;-92
2022/10/27 08:33:54;;;;;;;34.70;18.75;;;;;;;17.55;60.14;100986.66;4486140;32;20127;-89
2022/10/27 08:36:19;;;;;;;33.78;17.87;;;;;;;17.90;60.15;100979.94;4476400;32;20141;-88
2022/10/27 08:38:45;;;;;;;31.87;17.12;;;;;;;17.64;60.14;100982.78;4477621;32;20101;-89
2022/10/27 08:41:19;;;;;;;33.15;17.85;;;;;;;17.64;60.14;100988.03;4489087;32;20103;-89
2022/10/27 08:43:45;;;;;;;34.05;17.62;;;;;;;17.66;60.14;100986.19;4473057;32;20117;-90
2022/10/27 08:46:25;;;;;;;121.70;63.17;;;;;;;17.72;60.14;100991.25;4486804;32;20092;-90
2022/10/27 08:48:51;;;;;;;;;;;;;;;17.77;60.14;100987.50;4459926;32;20540;-91
2022/10/27 08:51:18;;;;;;;33.78;18.98;;;;;;;17.79;60.15;100984.81;4472692;32;20054;-90
2022/10/27 08:53:45;;;;;;;32.70;17.48;;;;;;;17.81;60.15;100982.97;4459789;32;20402;-91
2022/10/27 08:56:10;;;;;;;34.28;18.15;;;;;;;17.99;60.15;100979.56;4459988;32;20112;-91
2022/10/27 08:58:44;;;;;;;31.60;17.70;;;;;;;18.09;60.16;100985.28;4494659;31;20111;-91
2022/10/27 09:01:30;;;;;;;35.42;19.15;;;;;;;18.15;60.15;100977.09;4476012;32;20080;-91
2022/10/27 09:04:19;;;;;;;30.83;18.20;;;;;;;18.18;60.17;100984.00;4472965;32;20104;-92
2022/10/27 09:06:51;;;;;;;31.60;17.60;;;;;;;18.27;60.17;100986.25;4459852;32;20109;-91
2022/10/27 09:09:26;;;;;;;31.45;17.65;;;;;;;18.23;60.17;100984.69;4486902;31;20136;-90
2022/10/27 09:12:36;;;;;;;33.90;17.98;;;;;;;18.46;60.18;100975.75;4472421;32;20092;-90
2022/10/27 09:15:23;;;;;;;32.55;16.98;;;;;;;18.60;60.18;100979.47;4459382;32;20104;-90
2022/10/27 09:18:04;;;;;;;37.20;16.45;;;;;;;18.78;60.20;100977.78;4485672;32;20112;-91
2022/10/27 09:20:35;;;;;;;38.33;21.90;;;;;;;18.76;60.19;100979.66;4486831;31;20092;-91
2022/10/27 09:23:01;;;;;;;31.75;17.25;;;;;;;18.69;60.20;100989.63;4484798;32;20210;-90
2022/10/27 09:25:26;;;;;;;32.13;16.40;;;;;;;18.82;60.20;100984.62;4446626;32;20096;-92
2022/10/27 09:27:54;;;;;;;40.67;24.52;;;;;;;18.98;60.20;100980.38;4472162;32;20122;-91
2022/10/27 09:30:19;;;;;;;29.05;16.40;;;;;;;18.86;60.20;100982.72;4459590;32;20110;-90
2022/10/27 09:32:47;;;;;;;27.70;15.95;;;;;;;19.06;60.21;100985.25;4446519;32;20081;-91
2022/10/27 09:35:23;;;;;;;30.92;17.37;;;;;;;18.86;60.20;100980.91;4472879;32;20461;-91
2022/10/27 09:37:49;;;;;;;29.15;15.98;;;;;;;19.05;60.21;100978.28;4459504;32;20477;-91
2022/10/27 09:40:19;;;;;;;29.85;16.77;;;;;;;19.07;60.21;100978.22;4485330;32;20108;-91
2022/10/27 09:42:45;;;;;;;29.58;16.67;;;;;;;19.15;60.21;100976.91;4459202;32;20123;-91
2022/10/27 09:45:21;;;;;;;29.00;16.95;;;;;;;19.13;60.22;100976.13;4472134;32;20104;-91
2022/10/27 09:47:49;;;;;;;31.48;17.55;;;;;;;19.21;60.22;100978.41;4472576;32;20085;-90
2022/10/27 09:50:18;;;;;;;33.38;17.65;;;;;;;19.33;60.23;100983.09;4472548;32;20106;-91
2022/10/27 09:52:44;;;;;;;34.22;18.25;;;;;;;19.37;60.23;100978.50;4472659;32;20092;-90
2022/10/27 09:55:09;;;;;;;34.33;19.25;;;;;;;19.51;60.23;100982.19;4473361;32;20096;-91
2022/10/27 09:57:36;;;;;;;34.67;19.40;;;;;;;19.38;60.24;100983.72;4460548;32;20126;-91
2022/10/27 10:00:04;;;;;;;33.58;17.98;;;;;;;19.46;60.23;100981.56;4459655;32;20085;-91
2022/10/27 10:02:34;;;;;;;33.67;18.75;;;;;;;19.39;60.24;100981.91;4472306;32;20101;-92
2022/10/27 10:05:05;;;;;;;;;;;;;;;19.23;60.22;100981.84;4459501;32;20097;-92
2022/10/27 10:07:34;;;;;;;31.17;17.77;;;;;;;19.35;60.23;100983.84;4472987;32;20382;-92
2022/10/27 10:10:01;;;;;;;37.90;20.23;;;;;;;18.99;60.20;100986.50;4472662;32;20165;-92
2022/10/27 10:12:26;;;;;;;33.42;18.73;;;;;;;19.07;60.21;100984.34;4471878;32;20141;-92
2022/10/27 10:15:12;;;;;;;33.80;18.98;;;;;;;18.95;60.21;100988.44;4458636;32;20155;-90
2022/10/27 10:17:42;;;;;;;31.85;18.23;;;;;;;19.16;60.22;100983.88;4485745;32;20167;-94
2022/10/27 10:20:22;;;;;;;32.22;17.92;;;;;;;19.30;60.22;100988.50;4460499;32;20079;-93
2022/10/27 10:22:47;;;;;;;32.88;19.25;;;;;;;19.21;60.22;100989.81;4468550;32;20109;-95
2022/10/27 10:25:21;;;;;;;34.15;19.17;;;;;;;19.37;60.23;100984.62;4466905;32;20461;-95
2022/10/27 10:27:54;;;;;;;37.03;20.80;;;;;;;19.37;60.23;100989.06;4473830;32;20130;-94
2022/10/27 10:30:20;;;;;;;34.65;19.10;;;;;;;19.28;60.23;100993.03;4461245;32;20119;-93
2022/10/27 10:32:54;;;;;;;32.60;18.12;;;;;;;19.45;60.23;100995.69;4466242;32;20069;-95
2022/10/27 10:35:43;;;;;;;32.22;19.17;;;;;;;19.47;60.24;100992.97;4471559;32;20134;-94
2022/10/27 10:38:34;;;;;;;34.22;18.92;;;;;;;19.59;60.24;100995.03;4461200;32;20175;-95
2022/10/27 10:41:15;;;;;;;31.60;19.40;;;;;;;19.69;60.24;100992.81;4472825;32;20161;-94
2022/10/27 10:43:41;;;;;;;32.35;19.55;;;;;;;19.78;60.25;100990.56;4459925;32;20100;-94
2022/10/27 10:46:20;;;;;;;34.15;19.12;;;;;;;19.58;60.24;100995.97;4459649;32;20359;-95
2022/10/27 10:48:56;;;;;;;34.23;18.97;;;;;;;19.83;60.25;100979.75;4460188;32;20166;-94
2022/10/27 10:51:31;;;;;;;33.33;18.67;;;;;;;20.02;60.27;100977.03;4459993;32;20092;-94
2022/10/27 10:54:08;;;;;;;37.15;19.77;;;;;;;20.06;60.26;100976.78;4459784;32;20104;-93
2022/10/27 10:56:34;;;;;;;35.90;19.35;;;;;;;19.70;60.24;100981.31;4460810;32;20112;-94
2022/10/27 10:59:10;;;;;;;32.78;18.02;;;;;;;19.65;60.25;100983.34;4459855;32;20108;-95
2022/10/27 11:02:00;;;;;;;37.35;18.48;;;;;;;19.48;60.24;100989.41;4472675;32;20134;-94
2022/10/27 11:04:26;;;;;;;32.95;18.83;;;;;;;19.64;60.25;100985.13;4460008;32;20087;-94
2022/10/27 11:07:10;;;;;;;34.10;18.55;;;;;;;19.53;60.24;100988.28;4459556;32;20148;-94
2022/10/27 11:09:51;;;;;;;32.45;19.60;;;;;;;19.38;60.23;100982.84;4473144;32;20169;-94
2022/10/27 11:12:27;;;;;;;33.50;17.67;;;;;;;19.16;60.23;100980.41;4485502;32;20884;-94
2022/10/27 11:14:52;;;;;;;28.62;15.63;;;;;;;19.57;60.24;100988.97;4459758;32;20100;-94
2022/10/27 11:17:18;;;;;;;30.85;17.58;;;;;;;19.49;60.24;100983.19;4459446;32;20403;-95